Alvadore, Oregon
Current Conditions -  °F | °C
As of 6:54 PM on Friday 31 Oct 2014 (Local Time) from KEUG Reporting Station
Few Clouds Few Clouds  
Wind Chill: 49°   Ceiling: Unl
Heat Index: 49°   Visibility: 10mi
Dew Point: 45°   Wind: 0mph
Humidity: 86%   Direction: NA
Pressure: 29.83"   Gusts: NA
Location:  44.13°N, 123.26°W
Report Text: KEUG 010154Z 00000KT 10SM FEW030 FEW250 09/07 A2983 RMK AO2 SLP101 T00940072
Loading
Personal Weather Stations






























Interactive Weather Map
Tropical Storm Tracking
New forecast layout! Learn more

10-Day Weather Forecast

Advertisements
Track Severe Weather on mobile